createdAt,value
2019-02-28T00:00:46.347Z,9.40
2019-02-28T00:03:17.980Z,9.43
2019-02-28T00:05:49.649Z,9.00
2019-02-28T00:08:21.315Z,9.43
2019-02-28T00:10:53.050Z,9.53
2019-02-28T00:13:24.694Z,9.67
2019-02-28T00:15:56.354Z,8.53
2019-02-28T00:18:27.982Z,8.87
2019-02-28T00:20:59.634Z,9.93
2019-02-28T00:23:31.286Z,9.80
2019-02-28T00:26:03.133Z,10.10
2019-02-28T00:28:37.214Z,8.90
2019-02-28T00:31:08.873Z,9.63
2019-02-28T00:33:40.544Z,9.33
2019-02-28T00:36:12.244Z,9.73
2019-02-28T00:38:43.881Z,8.77
2019-02-28T00:41:15.510Z,8.87
2019-02-28T00:43:47.145Z,9.03
2019-02-28T00:46:18.926Z,7.90
2019-02-28T00:48:52.963Z,7.37
2019-02-28T00:51:24.481Z,7.77
2019-02-28T00:53:56.155Z,7.50
2019-02-28T00:56:27.804Z,7.47
2019-02-28T00:59:00.518Z,7.33
2019-02-28T01:01:32.840Z,7.73
2019-02-28T01:04:04.458Z,6.80
2019-02-28T01:06:36.089Z,7.20
2019-02-28T01:09:08.112Z,7.60
2019-02-28T01:11:39.753Z,7.37
2019-02-28T01:14:14.441Z,7.47
2019-02-28T01:16:46.169Z,7.03
2019-02-28T01:19:17.780Z,7.40
2019-02-28T01:21:49.460Z,6.50
2019-02-28T01:24:21.165Z,6.63
2019-02-28T01:26:52.814Z,7.87
2019-02-28T01:29:24.469Z,7.77
2019-02-28T01:31:56.106Z,7.57
2019-02-28T01:34:29.135Z,7.20
2019-02-28T01:37:01.285Z,7.40
2019-02-28T01:39:32.938Z,7.67
2019-02-28T01:42:05.916Z,6.70
2019-02-28T01:44:37.546Z,6.87
2019-02-28T01:47:09.416Z,7.00
2019-02-28T01:49:41.049Z,7.53
2019-02-28T01:52:12.698Z,6.90
2019-02-28T01:54:44.337Z,6.60
2019-02-28T01:57:15.997Z,7.00
2019-02-28T01:59:47.636Z,7.30
2019-02-28T02:02:19.278Z,6.90
2019-02-28T02:04:51.010Z,7.37
2019-02-28T02:07:22.736Z,7.47
2019-02-28T02:09:54.469Z,7.10
2019-02-28T02:12:26.121Z,7.67
2019-02-28T02:14:57.760Z,7.50
2019-02-28T02:17:32.201Z,7.27
2019-02-28T02:20:04.564Z,7.70
2019-02-28T02:22:36.221Z,7.63
2019-02-28T02:25:07.953Z,7.20
2019-02-28T02:27:39.597Z,7.27
2019-02-28T02:30:15.996Z,7.80
2019-02-28T02:32:48.061Z,7.40
2019-02-28T02:35:19.681Z,7.53
2019-02-28T02:37:51.321Z,8.57
2019-02-28T02:40:24.175Z,8.30
2019-02-28T02:42:55.995Z,8.20
2019-02-28T02:45:27.732Z,8.43
2019-02-28T02:47:59.493Z,9.10
2019-02-28T02:50:35.864Z,8.67
2019-02-28T02:53:06.444Z,8.30
2019-02-28T02:55:38.296Z,8.50
2019-02-28T02:58:09.937Z,8.50
2019-02-28T03:00:41.559Z,8.90
2019-02-28T03:03:13.187Z,7.77
2019-02-28T03:05:44.814Z,8.97
2019-02-28T03:08:16.459Z,8.60
2019-02-28T03:10:51.914Z,9.00
2019-02-28T03:13:21.618Z,8.80
2019-02-28T03:15:53.255Z,9.73
2019-02-28T03:18:24.911Z,9.87
2019-02-28T03:20:56.555Z,9.07
2019-02-28T03:23:28.281Z,10.37
2019-02-28T03:26:05.781Z,9.57
2019-02-28T03:28:33.518Z,9.50
2019-02-28T03:31:12.199Z,9.97
2019-02-28T03:33:38.723Z,9.40
2019-02-28T03:36:10.336Z,10.60
2019-02-28T03:38:48.171Z,10.13
2019-02-28T03:41:17.646Z,9.63
2019-02-28T03:44:01.926Z,10.17
2019-02-28T03:46:33.713Z,10.83
2019-02-28T03:49:11.012Z,11.40
2019-02-28T03:51:38.911Z,10.67
2019-02-28T03:54:10.642Z,11.47
2019-02-28T03:56:42.262Z,12.03
2019-02-28T03:59:18.186Z,11.33
2019-02-28T04:01:50.275Z,11.40
2019-02-28T04:04:22.049Z,11.63
2019-02-28T04:06:53.785Z,11.77
2019-02-28T04:09:25.440Z,11.53
2019-02-28T04:11:57.152Z,10.67
2019-02-28T04:14:33.051Z,12.03
2019-02-28T04:17:02.416Z,12.60
2019-02-28T04:19:35.486Z,13.10
2019-02-28T04:22:07.098Z,12.13
2019-02-28T04:24:38.738Z,12.43
2019-02-28T04:27:10.378Z,11.83
2019-02-28T04:29:42.032Z,13.80
2019-02-28T04:32:13.649Z,11.73
2019-02-28T04:34:45.729Z,14.17
2019-02-28T04:37:18.846Z,13.77
2019-02-28T04:39:53.329Z,13.70
2019-02-28T04:42:23.980Z,14.37
2019-02-28T04:44:55.666Z,14.23
2019-02-28T04:47:27.373Z,13.40
2019-02-28T04:49:59.017Z,15.97
2019-02-28T04:52:30.640Z,14.33
2019-02-28T04:55:03.937Z,13.47
2019-02-28T04:57:35.649Z,17.13
2019-02-28T05:00:07.647Z,14.30
2019-02-28T05:02:39.320Z,14.23
2019-02-28T05:05:12.631Z,14.57
2019-02-28T05:07:44.910Z,16.77
2019-02-28T05:10:19.280Z,15.40
2019-02-28T05:12:50.121Z,15.77
2019-02-28T05:15:21.770Z,15.90
2019-02-28T05:17:55.853Z,18.13
2019-02-28T05:20:26.953Z,17.17
2019-02-28T05:23:01.725Z,17.17
2019-02-28T05:25:32.118Z,18.00
2019-02-28T05:28:06.773Z,19.53
2019-02-28T05:30:37.427Z,17.73
2019-02-28T05:33:09.077Z,19.10
2019-02-28T05:35:40.714Z,18.93
2019-02-28T05:38:12.352Z,19.80
2019-02-28T05:40:43.985Z,19.70
2019-02-28T05:43:15.626Z,19.63
2019-02-28T05:45:52.221Z,20.03
2019-02-28T05:48:21.306Z,21.17
2019-02-28T05:50:53.406Z,20.77
2019-02-28T05:53:26.025Z,22.53
2019-02-28T05:55:59.877Z,22.33
2019-02-28T05:58:31.295Z,23.70
2019-02-28T06:01:02.927Z,23.80
2019-02-28T06:03:34.553Z,24.07
2019-02-28T06:06:08.010Z,24.87
2019-02-28T06:08:40.047Z,26.40
2019-02-28T06:11:11.739Z,25.73
2019-02-28T06:13:43.356Z,26.73
2019-02-28T06:16:15.018Z,27.27
2019-02-28T06:18:46.637Z,26.93
2019-02-28T06:21:18.307Z,27.67
2019-02-28T06:23:50.071Z,28.13
2019-02-28T06:26:21.953Z,27.27
2019-02-28T06:28:53.667Z,29.67
2019-02-28T06:31:25.273Z,30.50
2019-02-28T06:33:56.914Z,28.80
2019-02-28T06:36:29.311Z,30.00
2019-02-28T06:39:01.685Z,32.00
2019-02-28T06:41:39.986Z,30.97
2019-02-28T06:44:08.861Z,31.27
2019-02-28T06:46:40.855Z,30.97
2019-02-28T06:49:12.550Z,33.43
2019-02-28T06:51:44.238Z,34.07
2019-02-28T06:54:15.861Z,35.50
2019-02-28T06:56:47.497Z,34.63
2019-02-28T06:59:19.119Z,34.83
2019-02-28T07:01:56.549Z,34.83
2019-02-28T07:04:24.323Z,32.40
2019-02-28T07:06:55.973Z,34.33
2019-02-28T07:09:27.734Z,34.67
2019-02-28T07:11:59.366Z,31.80
2019-02-28T07:14:34.854Z,32.37
2019-02-28T07:17:07.792Z,32.10
2019-02-28T07:19:40.013Z,33.17
2019-02-28T07:22:11.664Z,33.40
2019-02-28T07:24:43.400Z,33.80
2019-02-28T07:27:15.205Z,33.87
2019-02-28T07:29:46.825Z,33.07
2019-02-28T07:32:18.475Z,33.97
2019-02-28T07:34:51.629Z,34.90
2019-02-28T07:37:23.457Z,32.90
2019-02-28T07:39:55.111Z,34.23
2019-02-28T07:42:26.759Z,31.73
2019-02-28T07:44:58.994Z,35.13
2019-02-28T07:47:30.658Z,35.27
2019-02-28T07:50:02.526Z,34.97
2019-02-28T07:52:34.185Z,36.37
2019-02-28T07:55:07.000Z,35.57
2019-02-28T07:57:38.665Z,35.50
2019-02-28T08:00:16.817Z,36.37
2019-02-28T08:02:47.033Z,36.33
2019-02-28T08:05:18.772Z,38.90
2019-02-28T08:07:52.269Z,38.13
2019-02-28T08:10:23.934Z,36.63
2019-02-28T08:12:55.563Z,38.70
2019-02-28T08:15:27.419Z,38.50
2019-02-28T08:17:59.166Z,36.33
2019-02-28T08:20:33.784Z,39.98
2019-02-28T08:23:05.086Z,37.93
2019-02-28T08:25:39.715Z,39.78
2019-02-28T08:28:10.325Z,38.02
2019-02-28T08:30:41.950Z,40.25
2019-02-28T08:33:16.379Z,41.08
2019-02-28T08:35:47.412Z,40.38
2019-02-28T08:38:19.055Z,43.17
2019-02-28T08:40:51.694Z,40.78
2019-02-28T08:43:27.107Z,40.92
2019-02-28T08:45:56.930Z,41.95
2019-02-28T08:48:31.829Z,40.75
2019-02-28T08:51:02.246Z,41.48
2019-02-28T08:53:33.925Z,41.55
2019-02-28T08:56:05.644Z,43.63
2019-02-28T08:58:39.204Z,43.58
2019-02-28T09:01:10.960Z,40.85
2019-02-28T09:03:45.002Z,42.60
2019-02-28T09:06:16.661Z,44.15
2019-02-28T09:08:48.326Z,42.67
2019-02-28T09:11:21.000Z,41.92
2019-02-28T09:13:53.344Z,41.92
2019-02-28T09:16:32.932Z,41.80
2019-02-28T09:19:04.678Z,44.77
2019-02-28T09:21:36.322Z,41.35
2019-02-28T09:24:09.403Z,43.28
2019-02-28T09:26:43.170Z,42.83
2019-02-28T09:29:15.233Z,42.40
2019-02-28T09:31:46.902Z,44.15
2019-02-28T09:34:22.897Z,42.65
2019-02-28T09:36:56.676Z,42.95
2019-02-28T09:39:28.323Z,42.25
2019-02-28T09:42:00.060Z,45.25
2019-02-28T09:44:36.336Z,44.55
2019-02-28T09:47:10.277Z,44.63
2019-02-28T09:49:44.231Z,44.25
2019-02-28T09:52:15.324Z,43.75
2019-02-28T09:55:08.594Z,43.25
2019-02-28T09:57:40.225Z,43.52
2019-02-28T10:00:14.345Z,42.45
2019-02-28T10:02:46.000Z,42.80
2019-02-28T10:05:17.658Z,41.98
2019-02-28T10:07:49.490Z,41.37
2019-02-28T10:10:22.002Z,42.67
2019-02-28T10:12:54.510Z,41.25
2019-02-28T10:15:26.268Z,41.53
2019-02-28T10:18:00.670Z,43.42
2019-02-28T10:20:32.595Z,42.58
2019-02-28T10:23:04.336Z,43.48
2019-02-28T10:25:40.110Z,43.87
2019-02-28T10:28:09.541Z,45.05
2019-02-28T10:30:41.205Z,43.42
2019-02-28T10:33:14.322Z,42.15
2019-02-28T10:35:46.428Z,39.78
2019-02-28T10:38:18.066Z,40.15
2019-02-28T10:40:52.366Z,41.50
2019-02-28T10:43:23.252Z,40.67
2019-02-28T10:45:54.895Z,37.88
2019-02-28T10:48:26.647Z,40.98
2019-02-28T10:50:58.394Z,40.25
2019-02-28T10:53:30.038Z,41.20
2019-02-28T10:56:01.785Z,41.92
2019-02-28T10:58:33.426Z,40.03
2019-02-28T11:01:08.626Z,38.80
2019-02-28T11:03:40.704Z,38.78
2019-02-28T11:06:12.765Z,40.08
2019-02-28T11:08:47.506Z,40.40
2019-02-28T11:11:18.323Z,39.27
2019-02-28T11:13:50.058Z,37.35
2019-02-28T11:16:23.660Z,39.85
2019-02-28T11:18:55.458Z,39.98
2019-02-28T11:21:29.874Z,38.05
2019-02-28T11:24:00.965Z,39.55
2019-02-28T11:26:32.697Z,40.70
2019-02-28T11:29:04.437Z,38.00
2019-02-28T11:31:36.081Z,40.90
2019-02-28T11:34:07.845Z,37.70
2019-02-28T11:36:39.478Z,40.57
2019-02-28T11:39:17.648Z,41.17
2019-02-28T11:41:52.523Z,40.93
2019-02-28T11:44:23.110Z,39.63
2019-02-28T11:46:54.777Z,39.43
2019-02-28T11:49:28.683Z,38.63
2019-02-28T11:52:00.101Z,37.47
2019-02-28T11:54:31.738Z,39.83
2019-02-28T11:57:06.614Z,38.37
2019-02-28T11:59:37.161Z,38.60
2019-02-28T12:02:08.918Z,39.90
2019-02-28T12:04:41.169Z,37.57
2019-02-28T12:07:12.910Z,37.50
2019-02-28T12:09:44.538Z,37.37
2019-02-28T12:12:16.233Z,36.57
2019-02-28T12:14:49.917Z,39.63
2019-02-28T12:17:21.601Z,39.98
2019-02-28T12:19:53.243Z,37.50
2019-02-28T12:22:24.937Z,37.40
2019-02-28T12:24:56.585Z,41.30
2019-02-28T12:27:28.281Z,38.48
2019-02-28T12:29:59.966Z,39.03
2019-02-28T12:32:31.719Z,37.55
2019-02-28T12:35:03.599Z,35.63
2019-02-28T12:37:35.257Z,39.33
2019-02-28T12:40:10.363Z,38.33
2019-02-28T12:42:42.681Z,38.37
2019-02-28T12:45:16.826Z,38.50
2019-02-28T12:47:48.471Z,39.03
2019-02-28T12:50:20.206Z,38.50
2019-02-28T12:52:51.858Z,39.57
2019-02-28T12:55:23.562Z,39.73
2019-02-28T12:57:57.820Z,38.77
2019-02-28T13:00:31.446Z,37.27
2019-02-28T13:03:03.448Z,38.17
2019-02-28T13:05:35.189Z,37.40
2019-02-28T13:08:07.061Z,38.40
2019-02-28T13:10:38.868Z,40.67
2019-02-28T13:13:10.621Z,40.03
2019-02-28T13:15:45.568Z,38.07
2019-02-28T13:18:15.917Z,36.77
2019-02-28T13:20:47.657Z,38.13
2019-02-28T13:23:19.348Z,36.07
2019-02-28T13:25:50.997Z,38.23
2019-02-28T13:28:23.692Z,37.63
2019-02-28T13:30:55.645Z,36.90
2019-02-28T13:33:27.373Z,37.70
2019-02-28T13:35:59.043Z,37.20
2019-02-28T13:38:30.784Z,38.30
2019-02-28T13:41:02.514Z,37.27
2019-02-28T13:43:34.162Z,38.43
2019-02-28T13:46:05.815Z,34.57
2019-02-28T13:48:37.545Z,37.80
2019-02-28T13:51:09.278Z,36.60
2019-02-28T13:53:40.935Z,37.23
2019-02-28T13:56:12.704Z,40.33
2019-02-28T13:58:44.506Z,39.27
2019-02-28T14:01:19.462Z,37.80
2019-02-28T14:03:49.768Z,38.50
2019-02-28T14:06:21.401Z,40.83
2019-02-28T14:08:53.035Z,40.33
2019-02-28T14:11:24.891Z,39.80
2019-02-28T14:13:56.695Z,38.37
2019-02-28T14:16:28.322Z,38.10
2019-02-28T14:19:00.053Z,37.93
2019-02-28T14:21:34.345Z,35.23
2019-02-28T14:24:05.225Z,37.27
2019-02-28T14:26:42.770Z,36.07
2019-02-28T14:29:11.631Z,37.17
2019-02-28T14:31:43.450Z,38.67
2019-02-28T14:34:15.132Z,36.70
2019-02-28T14:36:46.778Z,37.27
2019-02-28T14:39:26.183Z,37.57
2019-02-28T14:41:57.796Z,37.87
2019-02-28T14:44:31.743Z,39.23
2019-02-28T14:47:02.962Z,38.67
2019-02-28T14:49:34.610Z,34.63
2019-02-28T14:52:06.232Z,35.60
2019-02-28T14:54:37.887Z,37.63
2019-02-28T14:57:09.618Z,37.23
2019-02-28T14:59:41.270Z,36.83
2019-02-28T15:02:13.105Z,37.87
2019-02-28T15:04:45.786Z,37.53
2019-02-28T15:07:18.353Z,37.17
2019-02-28T15:09:49.989Z,36.00
2019-02-28T15:12:23.388Z,38.67
2019-02-28T15:14:55.170Z,34.87
2019-02-28T15:17:27.012Z,36.33
2019-02-28T15:19:58.763Z,38.43
2019-02-28T15:22:30.398Z,38.17
2019-02-28T15:25:04.301Z,40.97
2019-02-28T15:27:36.383Z,37.27
2019-02-28T15:30:17.724Z,36.33
2019-02-28T15:32:50.697Z,36.30
2019-02-28T15:35:23.244Z,38.77
2019-02-28T15:37:54.886Z,40.17
2019-02-28T15:40:28.972Z,39.83
2019-02-28T15:43:00.605Z,39.27
2019-02-28T15:45:36.172Z,40.03
2019-02-28T15:48:06.219Z,36.10
2019-02-28T15:50:37.866Z,39.87
2019-02-28T15:53:11.250Z,38.57
2019-02-28T15:55:43.298Z,39.90
2019-02-28T15:58:16.619Z,40.97
2019-02-28T16:00:48.607Z,39.30
2019-02-28T16:03:20.542Z,41.67
2019-02-28T16:05:52.185Z,46.50
2019-02-28T16:08:23.842Z,60.70
2019-02-28T16:10:55.498Z,58.63
2019-02-28T16:13:27.143Z,49.40
2019-02-28T16:15:58.807Z,44.73
2019-02-28T16:18:33.396Z,44.37
2019-02-28T16:21:07.286Z,44.60
2019-02-28T16:23:38.565Z,44.53
2019-02-28T16:26:10.320Z,44.37
2019-02-28T16:28:42.735Z,44.83
2019-02-28T16:31:15.124Z,45.77
2019-02-28T16:33:46.746Z,45.83
2019-02-28T16:36:18.411Z,45.80
2019-02-28T16:38:50.029Z,47.43
2019-02-28T16:41:21.676Z,47.37
2019-02-28T16:43:55.386Z,47.37
2019-02-28T16:46:26.875Z,48.13
2019-02-28T16:48:58.515Z,48.73
2019-02-28T16:51:30.261Z,48.23
2019-02-28T16:54:01.965Z,51.67
2019-02-28T16:56:37.596Z,49.07
2019-02-28T16:59:07.158Z,49.70
2019-02-28T17:01:39.021Z,51.73
2019-02-28T17:04:13.523Z,48.73
2019-02-28T17:06:44.203Z,51.97
2019-02-28T17:09:19.921Z,51.47
2019-02-28T17:12:00.610Z,53.23
2019-02-28T17:14:32.269Z,53.33
2019-02-28T17:17:08.638Z,53.73
2019-02-28T17:19:41.987Z,53.73
2019-02-28T17:22:13.892Z,54.03
2019-02-28T17:24:46.133Z,53.83
2019-02-28T17:27:26.858Z,55.97
2019-02-28T17:30:12.478Z,52.50
2019-02-28T17:32:44.112Z,53.80
2019-02-28T17:35:15.862Z,53.73
2019-02-28T17:37:47.657Z,52.10
2019-02-28T17:40:19.427Z,54.33
2019-02-28T17:42:51.165Z,55.30
2019-02-28T17:45:25.636Z,57.33
2019-02-28T17:48:45.371Z,54.17
2019-02-28T17:51:55.489Z,52.67
2019-02-28T17:54:54.251Z,52.33
2019-02-28T17:57:48.723Z,53.43
2019-02-28T18:00:37.706Z,57.80
2019-02-28T18:03:26.455Z,56.17
2019-02-28T18:06:25.633Z,58.30
2019-02-28T18:09:12.609Z,56.13
2019-02-28T18:12:06.007Z,58.30
2019-02-28T18:14:47.378Z,57.87
2019-02-28T18:18:05.344Z,57.87
2019-02-28T18:21:06.725Z,55.03
2019-02-28T18:24:05.962Z,56.63
2019-02-28T18:27:43.658Z,58.40
2019-02-28T18:30:47.027Z,56.83
2019-02-28T18:33:19.617Z,61.47
2019-02-28T18:35:51.363Z,63.43
2019-02-28T18:38:23.130Z,62.67
2019-02-28T18:40:54.746Z,66.87
2019-02-28T18:43:27.137Z,66.13
2019-02-28T18:45:59.967Z,70.67
2019-02-28T18:48:31.722Z,77.33
2019-02-28T18:51:06.259Z,69.33
2019-02-28T18:53:38.516Z,65.20
2019-02-28T18:56:10.248Z,67.03
2019-02-28T18:58:41.961Z,70.83
2019-02-28T19:01:13.653Z,68.33
2019-02-28T19:03:45.446Z,64.20
2019-02-28T19:06:17.172Z,64.73
2019-02-28T19:08:49.028Z,65.00
2019-02-28T19:11:20.684Z,71.40
2019-02-28T19:13:52.390Z,71.10
2019-02-28T19:16:25.415Z,78.87
2019-02-28T19:18:57.198Z,82.77
2019-02-28T19:21:28.858Z,74.17
2019-02-28T19:24:00.575Z,75.10
2019-02-28T19:26:32.229Z,71.13
2019-02-28T19:29:03.993Z,77.10
2019-02-28T19:31:35.617Z,74.07
2019-02-28T19:34:08.525Z,76.10
2019-02-28T19:36:40.553Z,73.93
2019-02-28T19:39:12.285Z,73.13
2019-02-28T19:41:43.926Z,74.73
2019-02-28T19:44:15.565Z,72.37
2019-02-28T19:46:47.214Z,75.57
2019-02-28T19:49:18.882Z,72.20
2019-02-28T19:51:50.551Z,73.57
2019-02-28T19:54:26.075Z,76.50
2019-02-28T19:56:57.892Z,77.10
2019-02-28T19:59:29.804Z,74.10
2019-02-28T20:02:01.578Z,72.63
2019-02-28T20:04:33.230Z,72.73
2019-02-28T20:07:04.935Z,72.27
2019-02-28T20:09:36.711Z,73.03
2019-02-28T20:12:08.418Z,74.93
2019-02-28T20:14:46.339Z,70.33
2019-02-28T20:17:18.012Z,68.63
2019-02-28T20:19:49.662Z,65.50
2019-02-28T20:22:21.334Z,64.70
2019-02-28T20:24:53.212Z,66.57
2019-02-28T20:27:25.087Z,62.10
2019-02-28T20:29:56.844Z,61.33
2019-02-28T20:32:28.487Z,59.27
2019-02-28T20:35:00.809Z,60.47
2019-02-28T20:37:32.446Z,59.07
2019-02-28T20:40:08.338Z,58.03
2019-02-28T20:43:13.245Z,58.57
2019-02-28T20:45:49.346Z,50.97
2019-02-28T20:48:21.043Z,58.23
2019-02-28T20:50:52.797Z,56.70
2019-02-28T20:53:24.445Z,57.27
2019-02-28T20:55:56.097Z,55.20
2019-02-28T20:58:27.735Z,52.90
2019-02-28T21:00:59.394Z,53.97
2019-02-28T21:03:31.033Z,52.33
2019-02-28T21:06:02.824Z,54.83
2019-02-28T21:08:37.442Z,53.30
2019-02-28T21:11:09.304Z,51.73
2019-02-28T21:13:40.933Z,53.50
2019-02-28T21:16:12.674Z,51.80
2019-02-28T21:18:45.370Z,50.73
2019-02-28T21:21:17.111Z,50.37
2019-02-28T21:23:48.744Z,50.00
2019-02-28T21:26:20.398Z,48.57
2019-02-28T21:28:52.073Z,48.73
2019-02-28T21:31:23.788Z,51.20
2019-02-28T21:33:55.422Z,49.97
2019-02-28T21:36:27.104Z,49.70
2019-02-28T21:38:58.733Z,46.70
2019-02-28T21:41:30.475Z,46.97
2019-02-28T21:44:08.529Z,47.40
2019-02-28T21:46:40.491Z,45.40
2019-02-28T21:49:12.141Z,47.23
2019-02-28T21:51:43.812Z,47.17
2019-02-28T21:54:20.708Z,47.23
2019-02-28T21:56:54.743Z,47.07
2019-02-28T21:59:26.293Z,46.77
2019-02-28T22:01:57.946Z,42.97
2019-02-28T22:04:33.838Z,45.10
2019-02-28T22:07:05.850Z,45.60
2019-02-28T22:09:37.578Z,44.33
2019-02-28T22:12:09.238Z,45.87
2019-02-28T22:14:40.888Z,45.97
2019-02-28T22:17:12.525Z,45.47
2019-02-28T22:20:04.218Z,42.30
2019-02-28T22:22:39.237Z,43.23
2019-02-28T22:25:11.671Z,42.63
2019-02-28T22:27:43.529Z,41.80
2019-02-28T22:30:32.101Z,37.13
2019-02-28T22:33:06.020Z,40.23
2019-02-28T22:35:40.895Z,37.67
2019-02-28T22:38:30.428Z,39.23
2019-02-28T22:41:02.069Z,37.57
2019-02-28T22:43:33.754Z,39.37
2019-02-28T22:46:05.437Z,39.10
2019-02-28T22:48:37.430Z,38.90
2019-02-28T22:51:09.070Z,37.67
2019-02-28T22:53:40.720Z,40.37
2019-02-28T22:56:13.471Z,40.57
2019-02-28T22:58:45.108Z,40.77
2019-02-28T23:01:18.385Z,40.17
2019-02-28T23:03:50.298Z,42.20
2019-02-28T23:06:21.930Z,40.57
2019-02-28T23:08:53.697Z,39.37
2019-02-28T23:11:25.447Z,39.13
2019-02-28T23:13:57.087Z,39.00
2019-02-28T23:16:30.958Z,38.37
2019-02-28T23:19:02.859Z,37.33
2019-02-28T23:21:34.477Z,39.67
2019-02-28T23:24:06.124Z,40.17
2019-02-28T23:27:11.232Z,40.00
2019-02-28T23:30:20.025Z,41.10
2019-02-28T23:32:58.211Z,40.63
2019-02-28T23:35:32.903Z,40.33
2019-02-28T23:38:04.659Z,37.83
2019-02-28T23:40:36.293Z,39.53
2019-02-28T23:43:08.030Z,38.90
2019-02-28T23:45:39.674Z,39.17
2019-02-28T23:48:11.319Z,37.13
2019-02-28T23:50:42.986Z,35.90
2019-02-28T23:53:14.640Z,37.13
2019-02-28T23:55:46.527Z,38.10
2019-02-28T23:58:18.275Z,37.53
